createdAt,value
2019-05-22T00:01:22.670Z,100.00
2019-05-22T00:03:33.015Z,100.00
2019-05-22T00:05:42.246Z,100.00
2019-05-22T00:07:51.566Z,100.00
2019-05-22T00:09:59.234Z,100.00
2019-05-22T00:12:10.164Z,100.00
2019-05-22T00:14:28.961Z,100.00
2019-05-22T00:16:45.642Z,100.00
2019-05-22T00:18:53.039Z,100.00
2019-05-22T00:21:01.107Z,100.00
2019-05-22T00:23:10.074Z,100.00
2019-05-22T00:25:21.307Z,100.00
2019-05-22T00:27:29.104Z,100.00
2019-05-22T00:29:36.107Z,100.00
2019-05-22T00:31:44.359Z,100.00
2019-05-22T00:33:52.180Z,100.00
2019-05-22T00:36:01.086Z,100.00
2019-05-22T00:38:10.288Z,100.00
2019-05-22T00:40:18.637Z,100.00
2019-05-22T00:42:28.180Z,100.00
2019-05-22T00:44:35.407Z,100.00
2019-05-22T00:46:43.696Z,100.00
2019-05-22T00:48:52.606Z,100.00
2019-05-22T00:51:02.936Z,100.00
2019-05-22T00:53:33.051Z,100.00
2019-05-22T00:55:44.195Z,100.00
2019-05-22T00:57:57.678Z,100.00
2019-05-22T01:00:20.873Z,100.00
2019-05-22T01:02:29.824Z,100.00
2019-05-22T01:04:39.711Z,100.00
2019-05-22T01:06:48.788Z,100.00
2019-05-22T01:08:57.456Z,100.00
2019-05-22T01:11:05.663Z,100.00
2019-05-22T01:13:14.258Z,100.00
2019-05-22T01:15:26.751Z,100.00
2019-05-22T01:17:38.744Z,100.00
2019-05-22T01:19:49.905Z,100.00
2019-05-22T01:22:02.305Z,100.00
2019-05-22T01:24:12.281Z,100.00
2019-05-22T01:26:20.804Z,100.00
2019-05-22T01:28:28.223Z,100.00
2019-05-22T01:30:40.790Z,100.00
2019-05-22T01:32:52.598Z,100.00
2019-05-22T01:35:00.810Z,100.00
2019-05-22T01:37:10.664Z,100.00
2019-05-22T01:39:32.154Z,100.00
2019-05-22T01:41:42.441Z,100.00
2019-05-22T01:43:51.955Z,100.00
2019-05-22T01:46:03.423Z,100.00
2019-05-22T01:48:19.404Z,100.00
2019-05-22T01:50:41.450Z,100.00
2019-05-22T01:52:49.698Z,100.00
2019-05-22T01:54:58.579Z,100.00
2019-05-22T01:57:06.781Z,100.00
2019-05-22T01:59:14.005Z,100.00
2019-05-22T02:01:22.808Z,100.00
2019-05-22T02:03:31.604Z,100.00
2019-05-22T02:05:38.601Z,100.00
2019-05-22T02:07:47.205Z,100.00
2019-05-22T02:09:55.102Z,100.00
2019-05-22T02:12:26.041Z,100.00
2019-05-22T02:14:34.744Z,100.00
2019-05-22T02:16:56.338Z,100.00
2019-05-22T02:18:54.589Z,100.00
2019-05-22T02:21:05.078Z,100.00
2019-05-22T02:23:13.013Z,100.00
2019-05-22T02:25:20.835Z,100.00
2019-05-22T02:27:28.421Z,100.00
2019-05-22T02:29:36.273Z,100.00
2019-05-22T02:31:44.182Z,100.00
2019-05-22T02:34:12.446Z,100.00
2019-05-22T02:36:20.052Z,100.00
2019-05-22T02:38:27.353Z,100.00
2019-05-22T02:40:38.076Z,100.00
2019-05-22T02:42:44.741Z,100.00
2019-05-22T02:44:54.596Z,100.00
2019-05-22T02:47:18.056Z,100.00
2019-05-22T02:49:14.691Z,100.00
2019-05-22T02:51:22.392Z,100.00
2019-05-22T02:53:30.055Z,100.00
2019-05-22T02:55:38.573Z,100.00
2019-05-22T02:57:45.957Z,100.00
2019-05-22T02:59:52.655Z,100.00
2019-05-22T03:02:04.399Z,100.00
2019-05-22T03:04:14.815Z,100.00
2019-05-22T03:06:22.729Z,100.00
2019-05-22T03:09:00.224Z,100.00
2019-05-22T03:11:09.037Z,100.00
2019-05-22T03:13:16.611Z,100.00
2019-05-22T03:15:24.853Z,100.00
2019-05-22T03:17:34.364Z,100.00
2019-05-22T03:19:47.875Z,100.00
2019-05-22T03:21:55.631Z,100.00
2019-05-22T03:24:04.389Z,100.00
2019-05-22T03:26:11.813Z,100.00
2019-05-22T03:28:19.690Z,100.00
2019-05-22T03:30:37.223Z,100.00
2019-05-22T03:32:45.486Z,100.00
2019-05-22T03:34:54.057Z,100.00
2019-05-22T03:37:01.016Z,100.00
2019-05-22T03:39:09.636Z,100.00
2019-05-22T03:41:18.654Z,100.00
2019-05-22T03:43:28.521Z,100.00
2019-05-22T03:45:36.714Z,100.00
2019-05-22T03:47:44.443Z,100.00
2019-05-22T03:49:56.223Z,100.00
2019-05-22T03:52:04.348Z,100.00
2019-05-22T03:54:11.939Z,100.00
2019-05-22T03:56:20.878Z,100.00
2019-05-22T03:58:27.995Z,100.00
2019-05-22T04:00:36.773Z,100.00
2019-05-22T04:02:46.450Z,99.07
2019-05-22T04:04:54.692Z,98.96
2019-05-22T04:07:05.958Z,94.86
2019-05-22T04:09:23.259Z,85.00
2019-05-22T04:11:34.114Z,75.75
2019-05-22T04:13:41.211Z,71.68
2019-05-22T04:15:48.018Z,65.05
2019-05-22T04:17:55.457Z,60.56
2019-05-22T04:20:03.734Z,57.68
2019-05-22T04:22:11.461Z,55.30
2019-05-22T04:24:21.118Z,52.00
2019-05-22T04:26:28.775Z,51.17
2019-05-22T04:28:39.712Z,52.54
2019-05-22T04:30:47.174Z,52.03
2019-05-22T04:32:54.249Z,51.50
2019-05-22T04:35:01.712Z,50.13
2019-05-22T04:37:11.056Z,49.65
2019-05-22T04:39:27.257Z,49.30
2019-05-22T04:41:35.250Z,51.51
2019-05-22T04:43:42.035Z,51.17
2019-05-22T04:45:49.446Z,53.19
2019-05-22T04:48:03.205Z,54.14
2019-05-22T04:50:13.611Z,52.85
2019-05-22T04:52:20.124Z,50.24
2019-05-22T04:54:27.509Z,50.48
2019-05-22T04:56:34.225Z,49.48
2019-05-22T04:58:41.373Z,50.39
2019-05-22T05:00:49.173Z,53.24
2019-05-22T05:02:57.411Z,55.31
2019-05-22T05:05:06.341Z,52.40
2019-05-22T05:07:13.649Z,50.00
2019-05-22T05:09:22.550Z,49.60
2019-05-22T05:11:29.430Z,49.59
2019-05-22T05:13:35.880Z,48.83
2019-05-22T05:15:42.927Z,48.35
2019-05-22T05:17:49.830Z,51.26
2019-05-22T05:19:56.299Z,54.17
2019-05-22T05:22:03.381Z,57.38
2019-05-22T05:24:10.140Z,60.18
2019-05-22T05:26:17.776Z,60.72
2019-05-22T05:28:24.720Z,62.12
2019-05-22T05:30:32.169Z,65.31
2019-05-22T05:32:39.949Z,63.97
2019-05-22T05:34:50.901Z,64.91
2019-05-22T05:37:01.799Z,67.46
2019-05-22T05:39:38.150Z,68.13
2019-05-22T05:41:44.863Z,69.50
2019-05-22T05:43:51.660Z,69.70
2019-05-22T05:46:00.639Z,69.46
2019-05-22T05:48:11.603Z,69.99
2019-05-22T05:50:20.529Z,70.26
2019-05-22T05:52:29.894Z,69.94
2019-05-22T05:54:38.187Z,70.89
2019-05-22T05:56:49.202Z,70.71
2019-05-22T05:58:57.875Z,69.46
2019-05-22T06:01:10.208Z,69.12
2019-05-22T06:03:41.011Z,70.12
2019-05-22T06:05:48.316Z,70.08
2019-05-22T06:07:55.292Z,69.08
2019-05-22T06:10:29.878Z,67.98
2019-05-22T06:12:38.233Z,67.88
2019-05-22T06:14:47.257Z,68.50
2019-05-22T06:17:08.569Z,67.23
2019-05-22T06:19:16.804Z,68.47
2019-05-22T06:21:23.781Z,68.57
2019-05-22T06:23:35.776Z,67.85
2019-05-22T06:25:43.039Z,67.41
2019-05-22T06:27:52.955Z,68.22
2019-05-22T06:30:07.225Z,67.54
2019-05-22T06:33:04.095Z,68.53
2019-05-22T06:35:12.290Z,68.09
2019-05-22T06:37:50.419Z,67.79
2019-05-22T06:39:58.082Z,67.14
2019-05-22T06:42:06.589Z,67.64
2019-05-22T06:44:36.094Z,65.73
2019-05-22T06:46:48.520Z,66.54
2019-05-22T06:48:59.599Z,66.80
2019-05-22T06:51:18.992Z,67.16
2019-05-22T06:53:20.127Z,65.63
2019-05-22T06:55:26.797Z,66.27
2019-05-22T06:57:34.990Z,65.96
2019-05-22T06:59:42.362Z,65.23
2019-05-22T07:01:50.746Z,64.73
2019-05-22T07:03:57.288Z,66.14
2019-05-22T07:06:04.781Z,65.86
2019-05-22T07:08:12.980Z,65.61
2019-05-22T07:10:21.401Z,65.23
2019-05-22T07:12:29.989Z,65.00
2019-05-22T07:14:39.959Z,65.79
2019-05-22T07:16:50.105Z,64.77
2019-05-22T07:18:56.830Z,65.28
2019-05-22T07:21:05.190Z,66.11
2019-05-22T07:23:26.243Z,65.41
2019-05-22T07:25:51.060Z,65.06
2019-05-22T07:28:10.549Z,64.01
2019-05-22T07:30:18.276Z,64.05
2019-05-22T07:32:25.420Z,62.64
2019-05-22T07:34:32.415Z,63.15
2019-05-22T07:36:40.577Z,63.64
2019-05-22T07:38:49.176Z,63.62
2019-05-22T07:40:56.279Z,63.97
2019-05-22T07:43:03.551Z,63.91
2019-05-22T07:45:12.100Z,63.49
2019-05-22T07:47:24.023Z,63.42
2019-05-22T07:49:32.965Z,63.00
2019-05-22T07:51:53.322Z,63.68
2019-05-22T07:53:50.049Z,63.59
2019-05-22T07:55:58.799Z,63.83
2019-05-22T07:58:17.398Z,63.68
2019-05-22T08:00:24.128Z,63.01
2019-05-22T08:02:41.551Z,63.31
2019-05-22T08:04:50.212Z,62.35
2019-05-22T08:06:57.129Z,62.95
2019-05-22T08:09:08.253Z,63.28
2019-05-22T08:11:16.316Z,63.04
2019-05-22T08:13:24.436Z,62.57
2019-05-22T08:15:33.454Z,61.49
2019-05-22T08:17:41.786Z,61.19
2019-05-22T08:19:48.656Z,60.94
2019-05-22T08:22:06.991Z,61.74
2019-05-22T08:24:09.684Z,60.74
2019-05-22T08:26:17.112Z,60.15
2019-05-22T08:28:25.779Z,60.56
2019-05-22T08:30:33.402Z,60.77
2019-05-22T08:32:41.840Z,59.93
2019-05-22T08:44:14.784Z,59.04
2019-05-22T08:46:03.213Z,59.54
2019-05-22T08:48:10.559Z,58.21
2019-05-22T08:50:19.628Z,58.67
2019-05-22T08:52:26.915Z,57.43
2019-05-22T08:54:36.538Z,58.97
2019-05-22T08:56:48.961Z,59.06
2019-05-22T08:58:56.780Z,57.35
2019-05-22T09:01:04.011Z,56.53
2019-05-22T09:03:12.043Z,55.34
2019-05-22T09:05:21.577Z,55.99
2019-05-22T09:07:27.570Z,56.11
2019-05-22T09:09:33.815Z,55.51
2019-05-22T09:11:40.528Z,57.07
2019-05-22T09:13:46.858Z,55.90
2019-05-22T09:15:54.214Z,55.22
2019-05-22T09:18:01.155Z,55.33
2019-05-22T09:20:09.955Z,55.03
2019-05-22T09:22:18.310Z,54.90
2019-05-22T09:24:26.633Z,56.39
2019-05-22T09:26:34.191Z,56.16
2019-05-22T09:28:40.474Z,56.70
2019-05-22T09:30:47.158Z,55.26
2019-05-22T09:32:54.750Z,55.89
2019-05-22T09:35:01.003Z,55.68
2019-05-22T09:37:08.085Z,54.02
2019-05-22T09:39:15.880Z,54.20
2019-05-22T09:41:22.544Z,54.32
2019-05-22T09:43:29.123Z,55.00
2019-05-22T09:45:37.104Z,52.39
2019-05-22T09:47:43.371Z,53.76
2019-05-22T09:49:51.171Z,52.79
2019-05-22T09:51:58.677Z,53.21
2019-05-22T09:54:05.845Z,51.49
2019-05-22T09:56:13.758Z,51.57
2019-05-22T09:58:20.408Z,51.70
2019-05-22T10:00:27.710Z,50.01
2019-05-22T10:02:34.794Z,50.57
2019-05-22T10:04:41.567Z,50.23
2019-05-22T10:06:48.139Z,49.81
2019-05-22T10:08:54.607Z,49.91
2019-05-22T10:11:01.259Z,50.94
2019-05-22T10:13:07.939Z,50.08
2019-05-22T10:15:15.543Z,50.21
2019-05-22T10:17:22.287Z,49.57
2019-05-22T10:19:29.886Z,49.83
2019-05-22T10:21:37.688Z,49.88
2019-05-22T10:23:46.119Z,49.60
2019-05-22T10:25:53.289Z,50.56
2019-05-22T10:27:59.736Z,52.46
2019-05-22T10:30:16.873Z,51.46
2019-05-22T10:32:23.320Z,50.43
2019-05-22T10:34:29.794Z,48.24
2019-05-22T10:36:36.844Z,49.19
2019-05-22T10:38:44.311Z,45.65
2019-05-22T10:40:51.844Z,46.84
2019-05-22T10:42:58.906Z,47.49
2019-05-22T10:45:07.145Z,48.05
2019-05-22T10:47:18.237Z,49.15
2019-05-22T10:49:22.927Z,47.56
2019-05-22T10:51:29.992Z,46.33
2019-05-22T10:53:37.589Z,47.69
2019-05-22T10:55:44.253Z,47.42
2019-05-22T10:57:51.000Z,47.14
2019-05-22T10:59:57.294Z,47.68
2019-05-22T11:02:04.482Z,46.22
2019-05-22T11:04:11.970Z,45.71
2019-05-22T11:06:19.573Z,46.39
2019-05-22T11:08:32.007Z,45.96
2019-05-22T11:10:35.359Z,44.09
2019-05-22T11:12:41.825Z,45.35
2019-05-22T11:14:49.018Z,45.56
2019-05-22T11:17:01.410Z,45.66
2019-05-22T11:19:07.459Z,45.50
2019-05-22T11:21:14.049Z,44.52
2019-05-22T11:23:20.502Z,43.88
2019-05-22T11:25:27.678Z,43.62
2019-05-22T11:27:34.249Z,43.94
2019-05-22T11:29:41.359Z,46.76
2019-05-22T11:31:48.732Z,46.65
2019-05-22T11:33:55.079Z,45.69
2019-05-22T11:36:03.884Z,45.36
2019-05-22T11:38:11.380Z,46.07
2019-05-22T11:40:20.913Z,46.12
2019-05-22T11:42:27.391Z,45.46
2019-05-22T11:44:33.843Z,44.84
2019-05-22T11:46:41.242Z,44.19
2019-05-22T11:48:47.590Z,45.47
2019-05-22T11:50:54.872Z,45.53
2019-05-22T11:53:01.345Z,46.42
2019-05-22T11:55:09.586Z,45.37
2019-05-22T11:57:17.042Z,45.29
2019-05-22T11:59:25.062Z,44.60
2019-05-22T12:01:32.002Z,44.88
2019-05-22T12:03:38.574Z,44.95
2019-05-22T12:05:45.666Z,44.11
2019-05-22T12:07:52.899Z,44.65
2019-05-22T12:10:00.575Z,43.88
2019-05-22T12:12:07.239Z,44.64
2019-05-22T12:14:14.412Z,45.51
2019-05-22T12:16:22.110Z,45.75
2019-05-22T12:18:29.261Z,46.44
2019-05-22T12:20:36.197Z,46.26
2019-05-22T12:22:44.177Z,46.75
2019-05-22T12:24:51.394Z,45.60
2019-05-22T12:26:58.922Z,45.52
2019-05-22T12:29:06.025Z,45.72
2019-05-22T12:31:13.979Z,43.92
2019-05-22T12:33:21.182Z,45.08
2019-05-22T12:35:28.812Z,44.46
2019-05-22T12:37:36.376Z,44.69
2019-05-22T12:40:02.560Z,43.74
2019-05-22T12:42:11.202Z,42.64
2019-05-22T12:44:17.999Z,43.44
2019-05-22T12:46:25.452Z,43.96
2019-05-22T12:48:32.350Z,44.08
2019-05-22T12:50:39.934Z,43.18
2019-05-22T12:52:50.973Z,43.00
2019-05-22T12:54:58.710Z,43.31
2019-05-22T12:57:08.760Z,42.06
2019-05-22T12:59:17.281Z,42.33
2019-05-22T13:01:25.388Z,42.09
2019-05-22T13:03:35.438Z,42.32
2019-05-22T13:05:41.876Z,41.71
2019-05-22T13:07:49.445Z,43.53
2019-05-22T13:09:56.053Z,43.00
2019-05-22T13:12:06.064Z,43.47
2019-05-22T13:14:13.898Z,44.45
2019-05-22T13:16:20.983Z,46.53
2019-05-22T13:18:29.588Z,47.42
2019-05-22T13:20:43.235Z,47.52
2019-05-22T13:22:50.521Z,48.13
2019-05-22T13:24:57.953Z,48.27
2019-05-22T13:27:07.750Z,46.68
2019-05-22T13:29:16.694Z,45.55
2019-05-22T13:31:29.987Z,44.82
2019-05-22T13:33:39.317Z,43.97
2019-05-22T13:35:46.499Z,43.86
2019-05-22T13:37:53.413Z,43.29
2019-05-22T13:40:00.353Z,44.76
2019-05-22T13:42:07.377Z,44.65
2019-05-22T13:44:14.877Z,44.62
2019-05-22T13:46:21.410Z,45.01
2019-05-22T13:48:28.672Z,45.42
2019-05-22T13:50:35.992Z,46.04
2019-05-22T13:52:43.787Z,46.15
2019-05-22T13:54:51.575Z,46.41
2019-05-22T13:56:59.199Z,46.55
2019-05-22T13:59:07.062Z,45.25
2019-05-22T14:01:13.928Z,44.08
2019-05-22T14:03:22.354Z,43.33
2019-05-22T14:05:31.332Z,43.86
2019-05-22T14:07:38.392Z,44.03
2019-05-22T14:09:45.925Z,43.08
2019-05-22T14:11:54.311Z,43.29
2019-05-22T14:14:02.237Z,41.84
2019-05-22T14:16:09.189Z,43.24
2019-05-22T14:18:16.279Z,44.61
2019-05-22T14:20:24.406Z,45.87
2019-05-22T14:22:31.186Z,46.62
2019-05-22T14:24:39.278Z,47.14
2019-05-22T14:26:45.829Z,46.82
2019-05-22T14:28:53.230Z,44.87
2019-05-22T14:31:00.400Z,45.25
2019-05-22T14:33:07.276Z,45.45
2019-05-22T14:35:15.990Z,45.34
2019-05-22T14:37:22.959Z,45.94
2019-05-22T14:39:30.720Z,46.21
2019-05-22T14:41:39.312Z,46.09
2019-05-22T14:43:45.857Z,46.18
2019-05-22T14:45:52.542Z,46.53
2019-05-22T14:47:59.239Z,46.65
2019-05-22T14:50:08.839Z,47.13
2019-05-22T14:52:16.151Z,46.85
2019-05-22T14:54:24.673Z,47.37
2019-05-22T14:56:32.019Z,47.85
2019-05-22T14:58:39.815Z,48.79
2019-05-22T15:00:48.436Z,49.76
2019-05-22T15:02:57.700Z,49.61
2019-05-22T15:05:05.817Z,49.27
2019-05-22T15:07:12.860Z,49.08
2019-05-22T15:09:19.743Z,48.89
2019-05-22T15:11:26.627Z,48.09
2019-05-22T15:13:33.703Z,48.42
2019-05-22T15:15:41.028Z,48.14
2019-05-22T15:17:47.827Z,47.52
2019-05-22T15:19:55.642Z,47.51
2019-05-22T15:22:02.341Z,47.41
2019-05-22T15:24:10.136Z,47.21
2019-05-22T15:26:37.239Z,46.92
2019-05-22T15:28:43.649Z,46.02
2019-05-22T15:30:50.578Z,45.53
2019-05-22T15:32:57.674Z,45.95
2019-05-22T15:35:05.242Z,45.77
2019-05-22T15:37:14.196Z,45.73
2019-05-22T15:39:25.729Z,45.28
2019-05-22T15:41:34.277Z,45.29
2019-05-22T15:43:44.814Z,45.34
2019-05-22T15:45:52.120Z,45.96
2019-05-22T15:48:07.064Z,46.70
2019-05-22T15:50:16.231Z,46.97
2019-05-22T15:52:27.892Z,46.84
2019-05-22T15:54:37.157Z,48.00
2019-05-22T15:56:44.714Z,48.07
2019-05-22T15:58:55.380Z,48.22
2019-05-22T16:01:03.178Z,48.18
2019-05-22T16:03:24.763Z,47.53
2019-05-22T16:05:32.584Z,47.08
2019-05-22T16:07:42.417Z,46.41
2019-05-22T16:09:50.337Z,46.07
2019-05-22T16:11:57.128Z,46.01
2019-05-22T16:14:05.742Z,45.35
2019-05-22T16:16:17.043Z,44.43
2019-05-22T16:18:33.508Z,44.61
2019-05-22T16:20:40.493Z,45.39
2019-05-22T16:22:47.358Z,44.96
2019-05-22T16:24:53.889Z,45.80
2019-05-22T16:27:01.339Z,45.72
2019-05-22T16:29:08.801Z,46.38
2019-05-22T16:31:17.747Z,47.35
2019-05-22T16:33:26.569Z,47.78
2019-05-22T16:35:33.314Z,47.65
2019-05-22T16:37:40.340Z,46.74
2019-05-22T16:39:50.290Z,46.52
2019-05-22T16:41:56.463Z,47.22
2019-05-22T16:44:04.229Z,47.66
2019-05-22T16:46:11.069Z,48.27
2019-05-22T16:48:28.641Z,48.15
2019-05-22T16:50:28.460Z,48.26
2019-05-22T16:52:37.343Z,48.35
2019-05-22T16:54:45.362Z,49.26
2019-05-22T16:56:53.149Z,49.35
2019-05-22T16:59:02.879Z,49.43
2019-05-22T17:01:11.142Z,49.22
2019-05-22T17:03:18.995Z,49.27
2019-05-22T17:05:25.473Z,49.13
2019-05-22T17:07:33.253Z,49.21
2019-05-22T17:09:42.683Z,49.49
2019-05-22T17:11:55.389Z,49.59
2019-05-22T17:14:06.919Z,49.55
2019-05-22T17:16:15.705Z,50.45
2019-05-22T17:18:22.461Z,50.81
2019-05-22T17:20:32.323Z,51.42
2019-05-22T17:22:41.324Z,51.46
2019-05-22T17:24:48.736Z,51.90
2019-05-22T17:26:57.949Z,52.13
2019-05-22T17:29:05.409Z,52.41
2019-05-22T17:31:12.963Z,52.66
2019-05-22T17:33:20.057Z,52.89
2019-05-22T17:35:27.403Z,53.56
2019-05-22T17:37:35.291Z,53.95
2019-05-22T17:39:43.878Z,54.32
2019-05-22T17:41:55.863Z,55.01
2019-05-22T17:44:02.181Z,55.45
2019-05-22T17:46:10.511Z,55.66
2019-05-22T17:48:21.339Z,56.13
2019-05-22T17:50:29.908Z,56.57
2019-05-22T17:52:38.340Z,56.53
2019-05-22T17:54:46.295Z,56.71
2019-05-22T17:56:53.253Z,56.89
2019-05-22T17:59:00.851Z,56.72
2019-05-22T18:01:08.763Z,56.94
2019-05-22T18:03:18.294Z,56.83
2019-05-22T18:05:29.268Z,57.13
2019-05-22T18:07:35.924Z,57.10
2019-05-22T18:09:42.398Z,56.88
2019-05-22T18:11:48.759Z,57.20
2019-05-22T18:14:04.083Z,57.73
2019-05-22T18:16:10.803Z,57.82
2019-05-22T18:18:17.964Z,58.02
2019-05-22T18:20:25.709Z,58.49
2019-05-22T18:22:33.247Z,58.53
2019-05-22T18:24:41.446Z,58.95
2019-05-22T18:26:48.606Z,59.21
2019-05-22T18:28:55.758Z,59.68
2019-05-22T18:31:03.842Z,59.42
2019-05-22T18:33:11.450Z,59.78
2019-05-22T18:35:19.259Z,59.79
2019-05-22T18:37:25.927Z,59.87
2019-05-22T18:39:34.631Z,59.88
2019-05-22T18:41:41.284Z,60.05
2019-05-22T18:43:48.188Z,60.17
2019-05-22T18:45:55.655Z,60.26
2019-05-22T18:48:02.746Z,60.73
2019-05-22T18:50:10.093Z,61.04
2019-05-22T18:52:18.624Z,60.80
2019-05-22T18:54:25.512Z,60.85
2019-05-22T18:56:32.266Z,61.04
2019-05-22T18:58:39.354Z,60.85
2019-05-22T19:00:45.837Z,60.82
2019-05-22T19:02:54.246Z,60.86
2019-05-22T19:05:01.739Z,61.04
2019-05-22T19:07:09.305Z,61.32
2019-05-22T19:09:17.164Z,61.21
2019-05-22T19:11:24.645Z,61.75
2019-05-22T19:13:32.271Z,61.75
2019-05-22T19:15:40.132Z,61.85
2019-05-22T19:17:47.153Z,61.82
2019-05-22T19:19:54.170Z,61.93
2019-05-22T19:22:01.045Z,62.02
2019-05-22T19:24:09.277Z,63.07
2019-05-22T19:26:16.480Z,63.08
2019-05-22T19:28:23.377Z,62.71
2019-05-22T19:30:30.360Z,62.63
2019-05-22T19:32:37.875Z,62.91
2019-05-22T19:34:46.689Z,63.23
2019-05-22T19:36:53.466Z,63.43
2019-05-22T19:39:00.884Z,63.46
2019-05-22T19:41:07.961Z,63.46
2019-05-22T19:43:15.587Z,63.97
2019-05-22T19:45:23.032Z,64.53
2019-05-22T19:47:30.013Z,64.52
2019-05-22T19:49:36.771Z,64.62
2019-05-22T19:51:45.499Z,65.10
2019-05-22T19:53:52.759Z,65.40
2019-05-22T19:56:00.159Z,65.87
2019-05-22T19:58:09.825Z,66.82
2019-05-22T20:00:17.145Z,67.64
2019-05-22T20:02:25.202Z,68.18
2019-05-22T20:04:32.862Z,68.19
2019-05-22T20:06:40.531Z,69.14
2019-05-22T20:08:48.184Z,70.20
2019-05-22T20:10:55.265Z,71.17
2019-05-22T20:13:02.941Z,71.23
2019-05-22T20:15:13.868Z,72.52
2019-05-22T20:17:20.413Z,73.45
2019-05-22T20:19:29.056Z,73.60
2019-05-22T20:21:36.164Z,74.93
2019-05-22T20:23:43.618Z,75.55
2019-05-22T20:25:51.121Z,76.10
2019-05-22T20:28:01.249Z,76.79
2019-05-22T20:30:12.231Z,76.97
2019-05-22T20:32:20.121Z,77.70
2019-05-22T20:34:27.328Z,78.23
2019-05-22T20:36:34.749Z,78.46
2019-05-22T20:38:41.164Z,79.05
2019-05-22T20:40:48.173Z,79.55
2019-05-22T20:42:54.780Z,79.77
2019-05-22T20:45:02.260Z,79.98
2019-05-22T20:47:11.477Z,80.51
2019-05-22T20:49:18.504Z,80.74
2019-05-22T20:51:26.519Z,80.97
2019-05-22T20:53:52.308Z,81.44
2019-05-22T20:55:45.729Z,81.62
2019-05-22T20:57:53.602Z,82.16
2019-05-22T21:00:01.357Z,82.21
2019-05-22T21:02:09.593Z,82.56
2019-05-22T21:04:20.117Z,82.85
2019-05-22T21:06:31.996Z,82.87
2019-05-22T21:08:40.671Z,83.28
2019-05-22T21:10:49.067Z,83.64
2019-05-22T21:12:57.590Z,83.94
2019-05-22T21:15:06.196Z,84.10
2019-05-22T21:17:12.594Z,84.55
2019-05-22T21:19:23.274Z,84.74
2019-05-22T21:21:29.101Z,85.01
2019-05-22T21:23:36.185Z,85.12
2019-05-22T21:25:43.032Z,85.41
2019-05-22T21:27:49.867Z,85.61
2019-05-22T21:29:57.639Z,86.01
2019-05-22T21:32:06.109Z,86.25
2019-05-22T21:34:13.193Z,86.50
2019-05-22T21:36:20.575Z,86.83
2019-05-22T21:38:30.203Z,87.06
2019-05-22T21:40:37.481Z,87.31
2019-05-22T21:42:46.126Z,87.77
2019-05-22T21:44:53.588Z,87.80
2019-05-22T21:47:02.580Z,88.21
2019-05-22T21:49:11.349Z,88.37
2019-05-22T21:51:18.627Z,88.53
2019-05-22T21:53:25.828Z,88.57
2019-05-22T21:55:34.383Z,88.97
2019-05-22T21:57:43.037Z,89.21
2019-05-22T21:59:51.589Z,89.39
2019-05-22T22:02:14.187Z,89.63
2019-05-22T22:04:23.773Z,89.84
2019-05-22T22:06:33.186Z,89.96
2019-05-22T22:08:39.972Z,89.96
2019-05-22T22:10:47.639Z,89.81
2019-05-22T22:12:56.452Z,89.73
2019-05-22T22:15:03.857Z,89.85
2019-05-22T22:17:12.994Z,89.92
2019-05-22T22:19:24.139Z,89.87
2019-05-22T22:21:31.045Z,89.92
2019-05-22T22:23:39.225Z,89.96
2019-05-22T22:25:46.481Z,90.07
2019-05-22T22:28:03.654Z,90.08
2019-05-22T22:30:20.611Z,89.99
2019-05-22T22:32:31.420Z,89.95
2019-05-22T22:34:45.022Z,89.90
2019-05-22T22:36:52.006Z,89.75
2019-05-22T22:38:59.814Z,89.58
2019-05-22T22:41:10.252Z,89.41
2019-05-22T22:43:17.578Z,89.26
2019-05-22T22:45:34.246Z,89.11
2019-05-22T22:47:42.577Z,88.77
2019-05-22T22:50:08.163Z,88.92
2019-05-22T22:52:16.694Z,88.91
2019-05-22T22:54:23.980Z,88.83
2019-05-22T22:56:31.346Z,88.92
2019-05-22T22:58:39.059Z,88.83
2019-05-22T23:00:50.434Z,88.93
2019-05-22T23:02:57.934Z,88.95
2019-05-22T23:05:06.857Z,88.98
2019-05-22T23:07:14.341Z,89.18
2019-05-22T23:09:21.638Z,89.38
2019-05-22T23:11:30.118Z,89.27
2019-05-22T23:13:38.740Z,89.46
2019-05-22T23:15:46.948Z,89.45
2019-05-22T23:17:53.627Z,89.67
2019-05-22T23:19:58.971Z,89.66
2019-05-22T23:22:04.988Z,89.59
2019-05-22T23:24:12.933Z,89.62
2019-05-22T23:26:21.656Z,89.67
2019-05-22T23:28:34.726Z,89.62
2019-05-22T23:30:37.408Z,89.82
2019-05-22T23:32:44.717Z,89.51
2019-05-22T23:34:51.285Z,89.36
2019-05-22T23:36:59.351Z,89.38
2019-05-22T23:39:15.982Z,89.47
2019-05-22T23:41:26.037Z,89.52
2019-05-22T23:43:33.693Z,89.64
2019-05-22T23:45:40.324Z,89.68
2019-05-22T23:48:07.850Z,89.79
2019-05-22T23:50:16.204Z,89.83
2019-05-22T23:52:23.641Z,89.82
2019-05-22T23:54:31.167Z,90.08
2019-05-22T23:56:39.667Z,89.86
2019-05-22T23:58:52.903Z,89.89
